createdAt,value
2022-07-27T00:00:56.320Z,0.50
2022-07-27T00:03:23.497Z,0.40
2022-07-27T00:05:50.884Z,0.47
2022-07-27T00:08:20.451Z,0.50
2022-07-27T00:10:47.493Z,0.63
2022-07-27T00:13:14.626Z,0.40
2022-07-27T00:15:41.728Z,0.50
2022-07-27T00:18:08.789Z,0.50
2022-07-27T00:20:36.443Z,0.50
2022-07-27T00:23:03.600Z,0.43
2022-07-27T00:25:30.536Z,1.08
2022-07-27T00:27:57.693Z,0.60
2022-07-27T00:30:25.483Z,0.65
2022-07-27T00:32:52.793Z,0.55
2022-07-27T00:35:20.106Z,0.73
2022-07-27T00:37:47.054Z,0.60
2022-07-27T00:40:14.409Z,0.70
2022-07-27T00:42:41.698Z,0.60
2022-07-27T00:45:09.134Z,0.50
2022-07-27T00:47:36.301Z,0.73
2022-07-27T00:50:04.297Z,0.70
2022-07-27T00:52:31.499Z,0.73
2022-07-27T00:54:59.323Z,0.82
2022-07-27T00:57:28.086Z,0.63
2022-07-27T00:59:55.324Z,0.60
2022-07-27T01:02:22.876Z,0.60
2022-07-27T01:04:53.769Z,0.68
2022-07-27T01:07:24.413Z,0.80
2022-07-27T01:09:57.631Z,0.80
2022-07-27T01:12:30.215Z,1.08
2022-07-27T01:14:59.050Z,1.20
2022-07-27T01:17:30.634Z,0.63
2022-07-27T01:19:59.185Z,0.80
2022-07-27T01:22:27.155Z,0.55
2022-07-27T01:24:54.421Z,0.60
2022-07-27T01:27:21.673Z,0.60
2022-07-27T01:29:49.460Z,0.70
2022-07-27T01:32:16.466Z,1.10
2022-07-27T01:34:43.610Z,0.70
2022-07-27T01:37:10.739Z,0.68
2022-07-27T01:39:37.845Z,0.63
2022-07-27T01:42:05.023Z,0.50
2022-07-27T01:44:32.100Z,0.60
2022-07-27T01:46:59.186Z,0.88
2022-07-27T01:49:26.321Z,0.50
2022-07-27T01:51:53.745Z,0.90
2022-07-27T01:54:20.619Z,0.50
2022-07-27T01:56:47.696Z,1.27
2022-07-27T01:59:16.843Z,0.68
2022-07-27T02:01:45.311Z,0.55
2022-07-27T02:04:12.342Z,1.00
2022-07-27T02:06:39.618Z,0.95
2022-07-27T02:09:06.827Z,0.50
2022-07-27T02:11:52.581Z,1.05
2022-07-27T02:14:21.382Z,0.60
2022-07-27T02:16:50.001Z,0.65
2022-07-27T02:19:18.516Z,1.02
2022-07-27T02:21:46.061Z,0.75
2022-07-27T02:24:13.020Z,1.20
2022-07-27T02:26:39.932Z,0.95
2022-07-27T02:29:07.621Z,0.80
2022-07-27T02:31:34.649Z,0.95
2022-07-27T02:34:01.792Z,0.75
2022-07-27T02:36:31.609Z,0.60
2022-07-27T02:38:58.897Z,1.08
2022-07-27T02:41:26.297Z,0.90
2022-07-27T02:43:53.468Z,1.45
2022-07-27T02:46:20.649Z,0.80
2022-07-27T02:48:47.858Z,0.95
2022-07-27T02:51:15.414Z,1.33
2022-07-27T02:53:42.472Z,1.20
2022-07-27T02:56:09.621Z,1.17
2022-07-27T02:58:37.588Z,1.00
2022-07-27T03:01:06.018Z,1.30
2022-07-27T03:03:36.886Z,1.15
2022-07-27T03:06:06.477Z,1.00
2022-07-27T03:08:33.686Z,0.73
2022-07-27T03:11:00.804Z,1.17
2022-07-27T03:13:29.005Z,1.10
2022-07-27T03:15:57.015Z,1.38
2022-07-27T03:18:24.216Z,1.33
2022-07-27T03:20:51.502Z,1.23
2022-07-27T03:23:18.823Z,1.38
2022-07-27T03:25:45.919Z,1.02
2022-07-27T03:28:13.035Z,1.10
2022-07-27T03:30:40.050Z,0.93
2022-07-27T03:33:07.478Z,1.30
2022-07-27T03:35:34.792Z,1.08
2022-07-27T03:38:02.192Z,1.20
2022-07-27T03:40:32.064Z,1.40
2022-07-27T03:42:59.890Z,1.65
2022-07-27T03:45:27.501Z,1.20
2022-07-27T03:47:54.730Z,1.17
2022-07-27T03:50:22.892Z,1.10
2022-07-27T03:52:51.026Z,1.25
2022-07-27T03:55:21.337Z,1.00
2022-07-27T03:57:48.520Z,0.93
2022-07-27T04:00:15.911Z,1.20
2022-07-27T04:02:43.144Z,1.30
2022-07-27T04:05:11.188Z,1.90
2022-07-27T04:07:38.821Z,1.35
2022-07-27T04:10:08.162Z,1.08
2022-07-27T04:12:39.493Z,1.10
2022-07-27T04:15:07.516Z,1.10
2022-07-27T04:17:54.374Z,1.40
2022-07-27T04:20:21.847Z,1.63
2022-07-27T04:22:48.865Z,1.40
2022-07-27T04:25:15.912Z,1.40
2022-07-27T04:27:43.246Z,1.83
2022-07-27T04:30:10.733Z,1.38
2022-07-27T04:32:38.031Z,1.48
2022-07-27T04:35:07.408Z,1.70
2022-07-27T04:37:35.165Z,2.55
2022-07-27T04:40:02.666Z,1.60
2022-07-27T04:42:29.988Z,1.58
2022-07-27T04:44:57.678Z,1.52
2022-07-27T04:47:24.607Z,1.48
2022-07-27T04:49:51.973Z,2.08
2022-07-27T04:52:19.279Z,1.52
2022-07-27T04:54:54.853Z,1.05
2022-07-27T04:57:23.203Z,1.33
2022-07-27T04:59:50.360Z,1.30
2022-07-27T05:02:17.732Z,1.60
2022-07-27T05:04:44.673Z,1.00
2022-07-27T05:07:11.657Z,0.68
2022-07-27T05:09:39.175Z,0.80
2022-07-27T05:12:06.324Z,0.77
2022-07-27T05:14:33.220Z,0.60
2022-07-27T05:17:00.462Z,0.65
2022-07-27T05:19:40.575Z,0.68
2022-07-27T05:22:10.526Z,0.50
2022-07-27T05:24:37.528Z,1.20
2022-07-27T05:27:04.540Z,0.40
2022-07-27T05:29:31.633Z,0.47
2022-07-27T05:31:58.808Z,0.43
2022-07-27T05:34:25.769Z,0.70
2022-07-27T05:36:53.213Z,0.63
2022-07-27T05:39:20.716Z,0.40
2022-07-27T05:41:48.954Z,0.98
2022-07-27T05:44:16.998Z,1.00
2022-07-27T05:46:44.045Z,0.77
2022-07-27T05:49:12.442Z,0.70
2022-07-27T05:51:39.963Z,1.05
2022-07-27T05:54:06.974Z,0.50
2022-07-27T05:56:35.465Z,0.60
2022-07-27T05:59:07.062Z,0.80
2022-07-27T06:01:34.613Z,0.50
2022-07-27T06:04:01.674Z,0.77
2022-07-27T06:06:47.428Z,0.63
2022-07-27T06:09:15.017Z,1.10
2022-07-27T06:11:43.051Z,0.60
2022-07-27T06:14:10.261Z,0.70
2022-07-27T06:16:37.260Z,0.60
2022-07-27T06:19:04.665Z,0.85
2022-07-27T06:21:31.933Z,0.47
2022-07-27T06:23:58.838Z,0.80
2022-07-27T06:26:25.988Z,0.82
2022-07-27T06:28:58.692Z,0.70
2022-07-27T06:31:27.155Z,0.88
2022-07-27T06:33:56.135Z,1.10
2022-07-27T06:36:27.324Z,0.77
2022-07-27T06:38:54.477Z,0.75
2022-07-27T06:41:21.769Z,0.70
2022-07-27T06:43:48.776Z,1.33
2022-07-27T06:46:15.838Z,1.58
2022-07-27T06:48:43.085Z,0.88
2022-07-27T06:51:10.091Z,1.33
2022-07-27T06:53:37.585Z,1.30
2022-07-27T06:56:05.236Z,1.08
2022-07-27T06:58:33.557Z,0.98
2022-07-27T07:01:02.411Z,1.23
2022-07-27T07:03:30.250Z,1.02
2022-07-27T07:05:57.893Z,1.30
2022-07-27T07:08:24.870Z,1.17
2022-07-27T07:10:52.079Z,0.90
2022-07-27T07:13:19.051Z,1.05
2022-07-27T07:15:46.317Z,0.93
2022-07-27T07:18:14.446Z,1.33
2022-07-27T07:20:42.354Z,1.13
2022-07-27T07:23:10.244Z,0.90
2022-07-27T07:25:39.187Z,1.42
2022-07-27T07:28:07.207Z,1.60
2022-07-27T07:30:35.527Z,1.45
2022-07-27T07:33:02.894Z,1.08
2022-07-27T07:35:35.454Z,1.05
2022-07-27T07:38:02.419Z,1.45
2022-07-27T07:40:43.359Z,1.02
2022-07-27T07:43:12.917Z,1.00
2022-07-27T07:45:51.557Z,1.00
2022-07-27T07:48:20.594Z,0.82
2022-07-27T07:50:51.628Z,1.40
2022-07-27T07:53:23.502Z,0.73
2022-07-27T07:55:56.807Z,0.93
2022-07-27T07:58:23.802Z,1.30
2022-07-27T08:00:50.721Z,0.90
2022-07-27T08:03:18.501Z,1.48
2022-07-27T08:05:45.932Z,0.82
2022-07-27T08:08:12.982Z,0.90
2022-07-27T08:10:40.323Z,1.65
2022-07-27T08:13:07.561Z,1.02
2022-07-27T08:15:36.001Z,1.30
2022-07-27T08:18:05.449Z,1.33
2022-07-27T08:20:33.357Z,0.95
2022-07-27T08:23:00.695Z,1.25
2022-07-27T08:25:27.920Z,1.77
2022-07-27T08:27:55.369Z,1.30
2022-07-27T08:30:24.178Z,1.00
2022-07-27T08:32:58.657Z,1.08
2022-07-27T08:35:27.336Z,0.90
2022-07-27T08:37:55.186Z,1.48
2022-07-27T08:40:41.038Z,1.35
2022-07-27T08:43:10.627Z,1.00
2022-07-27T08:45:37.852Z,1.10
2022-07-27T08:48:05.826Z,0.90
2022-07-27T08:50:34.808Z,1.10
2022-07-27T08:53:08.557Z,1.33
2022-07-27T08:55:43.546Z,1.40
2022-07-27T08:58:12.372Z,1.27
2022-07-27T09:00:41.998Z,1.25
2022-07-27T09:03:18.182Z,0.88
2022-07-27T09:05:53.359Z,1.20
2022-07-27T09:08:28.891Z,1.08
2022-07-27T09:10:59.699Z,1.17
2022-07-27T09:13:29.283Z,1.40
2022-07-27T09:16:17.393Z,1.10
2022-07-27T09:18:45.910Z,0.77
2022-07-27T09:21:15.366Z,1.00
2022-07-27T09:23:49.214Z,1.08
2022-07-27T09:26:34.227Z,0.77
2022-07-27T09:29:07.978Z,0.98
2022-07-27T09:31:45.665Z,1.40
2022-07-27T09:34:14.051Z,1.00
2022-07-27T09:36:56.292Z,0.90
2022-07-27T09:39:25.562Z,1.10
2022-07-27T09:41:56.055Z,1.15
2022-07-27T09:44:43.351Z,1.58
2022-07-27T09:47:26.935Z,1.30
2022-07-27T09:50:17.542Z,1.55
2022-07-27T09:52:45.767Z,1.95
2022-07-27T09:55:13.470Z,1.08
2022-07-27T09:57:58.035Z,1.67
2022-07-27T10:00:26.939Z,1.52
2022-07-27T10:02:55.208Z,1.40
2022-07-27T10:05:23.431Z,1.00
2022-07-27T10:07:52.494Z,0.88
2022-07-27T10:10:20.183Z,0.98
2022-07-27T10:12:54.232Z,1.13
2022-07-27T10:15:23.703Z,1.00
2022-07-27T10:18:01.652Z,1.75
2022-07-27T10:20:31.818Z,1.27
2022-07-27T10:22:59.171Z,1.35
2022-07-27T10:25:33.728Z,1.30
2022-07-27T10:28:16.586Z,0.90
2022-07-27T10:30:44.549Z,1.25
2022-07-27T10:33:49.680Z,1.25
2022-07-27T10:36:37.976Z,0.80
2022-07-27T10:39:06.860Z,1.10
2022-07-27T10:41:37.678Z,0.85
2022-07-27T10:44:22.746Z,0.85
2022-07-27T10:46:59.346Z,0.75
2022-07-27T10:49:28.851Z,0.82
2022-07-27T10:51:58.228Z,0.73
2022-07-27T10:54:36.416Z,0.80
2022-07-27T10:57:05.862Z,1.08
2022-07-27T11:00:07.949Z,0.80
2022-07-27T11:02:42.329Z,1.45
2022-07-27T11:05:32.919Z,1.00
2022-07-27T11:08:47.530Z,1.15
2022-07-27T11:10:48.496Z,0.88
2022-07-27T11:13:19.532Z,1.27
2022-07-27T11:16:04.772Z,1.20
2022-07-27T11:18:44.328Z,1.00
2022-07-27T11:21:25.556Z,1.17
2022-07-27T11:24:12.175Z,1.08
2022-07-27T11:26:42.909Z,1.33
2022-07-27T11:29:12.910Z,1.05
2022-07-27T11:31:58.391Z,1.20
2022-07-27T11:34:36.827Z,1.23
2022-07-27T11:37:12.307Z,1.23
2022-07-27T11:40:00.240Z,0.70
2022-07-27T11:42:37.489Z,0.80
2022-07-27T11:45:05.795Z,1.48
2022-07-27T11:47:34.159Z,1.05
2022-07-27T11:50:09.142Z,0.98
2022-07-27T11:52:36.340Z,1.17
2022-07-27T11:55:03.694Z,1.02
2022-07-27T11:57:32.696Z,1.05
2022-07-27T12:00:00.189Z,0.70
2022-07-27T12:02:27.399Z,0.80
2022-07-27T12:05:00.520Z,1.08
2022-07-27T12:07:31.650Z,0.77
2022-07-27T12:10:02.156Z,1.15
2022-07-27T12:12:35.161Z,1.00
2022-07-27T12:15:44.039Z,0.80
2022-07-27T12:18:03.337Z,0.88
2022-07-27T12:20:35.072Z,1.20
2022-07-27T12:23:09.238Z,1.25
2022-07-27T12:25:37.494Z,0.70
2022-07-27T12:28:13.518Z,0.90
2022-07-27T12:30:46.552Z,1.20
2022-07-27T12:33:38.593Z,0.75
2022-07-27T12:36:09.601Z,0.87
2022-07-27T12:38:43.728Z,0.80
2022-07-27T12:41:11.360Z,0.90
2022-07-27T12:43:38.467Z,1.08
2022-07-27T12:46:13.248Z,0.93
2022-07-27T12:48:42.545Z,0.88
2022-07-27T12:51:11.014Z,0.80
2022-07-27T12:53:39.115Z,1.67
2022-07-27T12:56:09.941Z,1.00
2022-07-27T12:58:37.668Z,0.88
2022-07-27T13:01:06.059Z,0.90
2022-07-27T13:03:33.633Z,0.57
2022-07-27T13:06:12.493Z,1.40
2022-07-27T13:08:40.829Z,1.33
2022-07-27T13:11:07.775Z,0.70
2022-07-27T13:13:34.771Z,0.77
2022-07-27T13:16:01.940Z,0.82
2022-07-27T13:18:28.915Z,0.80
2022-07-27T13:20:55.897Z,0.80
2022-07-27T13:23:23.293Z,1.20
2022-07-27T13:25:51.303Z,1.10
2022-07-27T13:28:18.250Z,0.65
2022-07-27T13:30:45.685Z,1.10
2022-07-27T13:33:12.647Z,1.10
2022-07-27T13:35:39.530Z,0.63
2022-07-27T13:38:07.235Z,1.23
2022-07-27T13:40:34.158Z,1.60
2022-07-27T13:43:01.095Z,0.98
2022-07-27T13:45:29.096Z,0.98
2022-07-27T13:48:09.331Z,0.60
2022-07-27T13:50:36.395Z,0.45
2022-07-27T13:53:03.353Z,0.70
2022-07-27T13:55:30.312Z,0.65
2022-07-27T13:59:01.591Z,0.80
2022-07-27T14:01:29.326Z,0.82
2022-07-27T14:03:56.620Z,1.38
2022-07-27T14:06:24.116Z,0.45
2022-07-27T14:08:52.652Z,0.50
2022-07-27T14:11:20.534Z,0.75
2022-07-27T14:13:47.522Z,1.10
2022-07-27T14:16:14.603Z,0.70
2022-07-27T14:18:41.974Z,0.50
2022-07-27T14:21:09.353Z,1.23
2022-07-27T14:23:37.351Z,0.70
2022-07-27T14:26:06.932Z,0.63
2022-07-27T14:28:34.886Z,0.70
2022-07-27T14:31:03.969Z,0.60
2022-07-27T14:33:36.770Z,0.75
2022-07-27T14:36:05.790Z,1.10
2022-07-27T14:38:32.725Z,0.70
2022-07-27T14:41:01.231Z,0.40
2022-07-27T14:43:29.086Z,0.50
2022-07-27T14:45:56.316Z,0.60
2022-07-27T14:48:37.195Z,0.40
2022-07-27T14:51:10.745Z,0.68
2022-07-27T14:53:37.980Z,0.68
2022-07-27T14:56:05.191Z,0.50
2022-07-27T14:58:32.470Z,0.47
2022-07-27T15:00:59.634Z,0.45
2022-07-27T15:03:26.683Z,0.80
2022-07-27T15:05:53.649Z,0.50
2022-07-27T15:08:21.390Z,0.50
2022-07-27T15:10:48.888Z,0.30
2022-07-27T15:13:16.701Z,0.52
2022-07-27T15:15:44.344Z,0.55
2022-07-27T15:18:11.290Z,0.63
2022-07-27T15:20:38.272Z,0.88
2022-07-27T15:23:06.704Z,0.93
2022-07-27T15:25:33.975Z,0.52
2022-07-27T15:28:00.916Z,0.43
2022-07-27T15:30:28.385Z,0.75
2022-07-27T15:32:55.397Z,0.30
2022-07-27T15:35:22.451Z,0.50
2022-07-27T15:37:54.215Z,0.47
2022-07-27T15:40:36.863Z,0.40
2022-07-27T15:43:12.839Z,0.40
2022-07-27T15:45:41.505Z,0.65
2022-07-27T15:48:10.728Z,0.60
2022-07-27T15:50:39.257Z,0.45
2022-07-27T15:53:06.934Z,0.93
2022-07-27T15:55:35.147Z,1.55
2022-07-27T15:58:02.072Z,0.70
2022-07-27T16:00:29.671Z,0.60
2022-07-27T16:02:57.379Z,0.57
2022-07-27T16:05:24.620Z,0.95
2022-07-27T16:07:51.593Z,0.60
2022-07-27T16:10:18.847Z,0.60
2022-07-27T16:12:45.699Z,0.68
2022-07-27T16:15:12.721Z,0.70
2022-07-27T16:17:39.807Z,0.55
2022-07-27T16:20:07.419Z,0.45
2022-07-27T16:22:36.663Z,0.63
2022-07-27T16:25:04.505Z,0.80
2022-07-27T16:27:31.409Z,0.40
2022-07-27T16:29:58.324Z,0.38
2022-07-27T16:32:25.839Z,0.70
2022-07-27T16:34:52.873Z,0.50
2022-07-27T16:37:19.798Z,0.70
2022-07-27T16:39:49.527Z,0.95
2022-07-27T16:42:16.591Z,0.47
2022-07-27T16:44:43.527Z,0.50
2022-07-27T16:47:10.489Z,0.57
2022-07-27T16:49:37.647Z,0.45
2022-07-27T16:52:06.092Z,0.43
2022-07-27T16:54:38.830Z,0.50
2022-07-27T16:57:08.097Z,0.47
2022-07-27T16:59:35.070Z,0.40
2022-07-27T17:02:02.008Z,0.50
2022-07-27T17:04:29.397Z,0.88
2022-07-27T17:06:56.363Z,0.63
2022-07-27T17:09:23.407Z,0.47
2022-07-27T17:11:50.539Z,0.50
2022-07-27T17:14:20.867Z,0.45
2022-07-27T17:16:51.955Z,0.50
2022-07-27T17:19:20.251Z,0.45
2022-07-27T17:21:48.036Z,0.30
2022-07-27T17:24:15.037Z,0.85
2022-07-27T17:26:42.100Z,0.55
2022-07-27T17:29:09.135Z,0.30
2022-07-27T17:31:36.122Z,0.40
2022-07-27T17:34:03.497Z,0.50
2022-07-27T17:36:30.394Z,0.30
2022-07-27T17:38:57.909Z,0.50
2022-07-27T17:41:25.611Z,0.40
2022-07-27T17:43:56.664Z,0.63
2022-07-27T17:46:24.737Z,0.47
2022-07-27T17:48:53.075Z,0.88
2022-07-27T17:51:20.642Z,1.17
2022-07-27T17:53:47.703Z,0.50
2022-07-27T17:56:15.204Z,0.65
2022-07-27T17:58:43.074Z,0.90
2022-07-27T18:01:10.150Z,0.77
2022-07-27T18:03:37.506Z,0.68
2022-07-27T18:06:04.812Z,0.52
2022-07-27T18:08:31.803Z,1.13
2022-07-27T18:10:59.177Z,0.75
2022-07-27T18:13:39.322Z,1.15
2022-07-27T18:16:09.823Z,0.60
2022-07-27T18:18:37.258Z,0.70
2022-07-27T18:21:05.235Z,0.90
2022-07-27T18:23:32.821Z,0.60
2022-07-27T18:25:59.884Z,0.85
2022-07-27T18:28:26.896Z,0.65
2022-07-27T18:30:54.603Z,0.65
2022-07-27T18:33:22.136Z,0.73
2022-07-27T18:35:49.216Z,0.63
2022-07-27T18:38:16.834Z,1.35
2022-07-27T18:40:45.870Z,1.10
2022-07-27T18:43:13.671Z,0.80
2022-07-27T18:45:41.551Z,0.73
2022-07-27T18:48:10.199Z,0.98
2022-07-27T18:50:39.594Z,1.10
2022-07-27T18:53:08.716Z,1.10
2022-07-27T18:55:36.164Z,1.02
2022-07-27T18:58:03.832Z,1.40
2022-07-27T19:00:31.559Z,1.40
2022-07-27T19:02:58.719Z,1.10
2022-07-27T19:05:30.486Z,1.30
2022-07-27T19:08:12.943Z,1.50
2022-07-27T19:10:40.494Z,1.00
2022-07-27T19:13:07.537Z,1.58
2022-07-27T19:15:34.636Z,1.00
2022-07-27T19:18:01.732Z,1.45
2022-07-27T19:20:29.179Z,1.65
2022-07-27T19:22:57.746Z,1.63
2022-07-27T19:25:24.667Z,1.95
2022-07-27T19:27:51.544Z,1.45
2022-07-27T19:30:18.819Z,2.20
2022-07-27T19:32:45.720Z,1.88
2022-07-27T19:35:12.820Z,1.75
2022-07-27T19:37:40.318Z,1.83
2022-07-27T19:40:41.514Z,1.40
2022-07-27T19:42:56.172Z,1.17
2022-07-27T19:45:23.340Z,1.50
2022-07-27T19:47:51.164Z,1.55
2022-07-27T19:50:18.645Z,2.08
2022-07-27T19:52:45.549Z,1.58
2022-07-27T19:55:12.678Z,1.50
2022-07-27T19:57:39.934Z,2.13
2022-07-27T20:00:08.950Z,1.60
2022-07-27T20:02:36.025Z,1.63
2022-07-27T20:05:03.808Z,1.90
2022-07-27T20:07:30.788Z,2.22
2022-07-27T20:09:57.698Z,1.80
2022-07-27T20:12:25.592Z,2.33
2022-07-27T20:14:52.778Z,2.05
2022-07-27T20:17:19.801Z,1.80
2022-07-27T20:19:47.193Z,2.15
2022-07-27T20:22:14.161Z,2.75
2022-07-27T20:24:41.201Z,2.22
2022-07-27T20:27:08.608Z,1.88
2022-07-27T20:29:35.568Z,1.70
2022-07-27T20:32:02.535Z,1.90
2022-07-27T20:34:29.676Z,1.33
2022-07-27T20:36:57.978Z,1.50
2022-07-27T20:39:25.837Z,1.45
2022-07-27T20:41:53.555Z,1.40
2022-07-27T20:44:21.182Z,1.35
2022-07-27T20:46:48.503Z,1.67
2022-07-27T20:49:17.361Z,1.50
2022-07-27T20:51:46.134Z,1.20
2022-07-27T20:54:13.645Z,1.15
2022-07-27T20:56:40.766Z,1.30
2022-07-27T20:59:09.061Z,1.27
2022-07-27T21:01:44.161Z,2.10
2022-07-27T21:04:11.271Z,1.70
2022-07-27T21:06:38.694Z,1.52
2022-07-27T21:09:07.568Z,1.25
2022-07-27T21:11:34.539Z,1.92
2022-07-27T21:14:01.534Z,1.17
2022-07-27T21:16:29.177Z,1.65
2022-07-27T21:18:57.250Z,1.58
2022-07-27T21:21:27.600Z,1.60
2022-07-27T21:24:13.969Z,1.27
2022-07-27T21:26:43.667Z,1.55
2022-07-27T21:29:11.944Z,1.58
2022-07-27T21:31:39.494Z,1.33
2022-07-27T21:34:07.487Z,1.85
2022-07-27T21:36:35.153Z,1.80
2022-07-27T21:39:02.256Z,2.05
2022-07-27T21:41:29.197Z,1.92
2022-07-27T21:43:57.034Z,2.33
2022-07-27T21:46:24.796Z,1.77
2022-07-27T21:48:51.764Z,1.80
2022-07-27T21:51:19.601Z,1.83
2022-07-27T21:53:46.570Z,1.50
2022-07-27T21:56:15.271Z,1.35
2022-07-27T21:58:45.728Z,1.88
2022-07-27T22:01:13.592Z,1.17
2022-07-27T22:03:42.142Z,1.60
2022-07-27T22:06:10.747Z,1.65
2022-07-27T22:08:38.112Z,1.55
2022-07-27T22:11:05.801Z,1.45
2022-07-27T22:13:33.316Z,1.63
2022-07-27T22:16:00.659Z,1.45
2022-07-27T22:18:28.828Z,1.25
2022-07-27T22:20:56.592Z,1.75
2022-07-27T22:23:23.685Z,1.60
2022-07-27T22:25:50.880Z,1.60
2022-07-27T22:28:18.002Z,1.67
2022-07-27T22:31:15.569Z,1.80
2022-07-27T22:33:32.858Z,1.55
2022-07-27T22:35:59.737Z,1.67
2022-07-27T22:38:28.131Z,1.48
2022-07-27T22:40:56.546Z,1.48
2022-07-27T22:43:23.760Z,1.90
2022-07-27T22:45:52.085Z,1.23
2022-07-27T22:48:19.239Z,2.28
2022-07-27T22:50:46.263Z,2.03
2022-07-27T22:53:15.095Z,1.45
2022-07-27T22:55:42.455Z,2.00
2022-07-27T22:58:09.474Z,1.55
2022-07-27T23:00:36.553Z,1.40
2022-07-27T23:03:03.949Z,1.83
2022-07-27T23:05:31.410Z,1.80
2022-07-27T23:07:59.454Z,1.23
2022-07-27T23:10:45.318Z,1.90
2022-07-27T23:13:17.094Z,1.75
2022-07-27T23:15:45.427Z,1.65
2022-07-27T23:18:13.618Z,2.00
2022-07-27T23:20:41.364Z,1.70
2022-07-27T23:23:15.294Z,1.60
2022-07-27T23:25:47.950Z,1.80
2022-07-27T23:28:16.433Z,1.73
2022-07-27T23:30:44.055Z,1.65
2022-07-27T23:33:11.119Z,2.00
2022-07-27T23:35:38.308Z,1.90
2022-07-27T23:38:05.276Z,2.00
2022-07-27T23:40:32.476Z,1.55
2022-07-27T23:42:59.595Z,1.70
2022-07-27T23:45:27.142Z,1.65
2022-07-27T23:47:54.354Z,1.80
2022-07-27T23:50:22.257Z,1.40
2022-07-27T23:52:49.164Z,1.75
2022-07-27T23:55:16.084Z,1.60
2022-07-27T23:57:43.469Z,1.48
